Time;durP1;ratioP1;P1;durP2;ratioP2;P2;SDS_P1;SDS_P2;PMS_P1;PMS_P2;Temp;Humidity;BMP_temperature;BMP_pressure;BME280_temperature;BME280_humidity;BME280_pressure;Samples;Min_cycle;Max_cycle;Signal;HPM_P1;HPM_P2
2022/03/30 00:00:56;;;;;;;39.92;18.95;;;;;;;7.81;68.79;100737.72;5125456;28;20046;-74
2022/03/30 00:03:21;;;;;;;35.95;18.67;;;;;;;7.77;69.89;100730.84;5111627;28;20055;-74
2022/03/30 00:05:46;;;;;;;38.58;18.83;;;;;;;7.72;69.59;100723.13;5110952;28;20415;-74
2022/03/30 00:08:12;;;;;;;38.83;19.15;;;;;;;7.66;69.94;100725.81;5126788;28;20378;-74
2022/03/30 00:10:37;;;;;;;36.00;19.05;;;;;;;7.65;69.49;100733.59;5112257;28;20089;-74
2022/03/30 00:13:03;;;;;;;37.15;19.67;;;;;;;7.61;70.46;100735.38;5126532;27;20035;-74
2022/03/30 00:15:28;;;;;;;36.17;19.25;;;;;;;7.61;70.48;100737.97;5118920;27;20043;-74
2022/03/30 00:17:54;;;;;;;39.30;18.33;;;;;;;7.63;70.32;100735.38;5117324;27;20023;-74
2022/03/30 00:20:20;;;;;;;40.60;18.50;;;;;;;7.64;70.39;100737.09;5116509;27;20035;-74
2022/03/30 00:22:46;;;;;;;36.42;18.45;;;;;;;7.60;69.97;100727.63;5136298;27;20034;-74
2022/03/30 00:25:12;;;;;;;35.58;18.88;;;;;;;7.61;70.65;100734.53;5129492;27;20083;-74
2022/03/30 00:27:41;;;;;;;40.80;18.25;;;;;;;7.56;70.80;100733.75;5116095;27;20046;-73
2022/03/30 00:30:08;;;;;;;41.55;19.40;;;;;;;7.47;69.99;100732.97;5117172;27;20154;-74
2022/03/30 00:32:33;;;;;;;38.95;19.02;;;;;;;7.39;71.65;100720.97;5116481;27;20112;-74
2022/03/30 00:34:59;;;;;;;39.17;18.80;;;;;;;7.36;71.03;100728.81;5117516;27;20484;-74
2022/03/30 00:37:25;;;;;;;34.08;18.90;;;;;;;7.30;70.93;100734.06;5135942;27;20034;-74
2022/03/30 00:39:52;;;;;;;31.35;18.23;;;;;;;7.23;71.07;100718.56;5132834;27;20038;-73
2022/03/30 00:42:19;;;;;;;39.75;18.67;;;;;;;7.16;71.92;100706.56;5117711;27;20043;-73
2022/03/30 00:44:46;;;;;;;36.42;17.98;;;;;;;7.16;71.81;100710.88;5116500;27;20035;-73
2022/03/30 00:47:23;;;;;;;40.53;19.25;;;;;;;7.13;72.63;100713.50;5129630;27;20084;-74
2022/03/30 00:49:49;;;;;;;40.10;18.77;;;;;;;7.10;72.91;100701.44;5118765;27;20108;-73
2022/03/30 00:52:15;;;;;;;40.45;18.52;;;;;;;7.13;73.07;100708.31;5129766;27;20050;-74
2022/03/30 00:54:42;;;;;;;36.35;18.35;;;;;;;7.09;72.33;100710.06;5134299;27;20023;-74
2022/03/30 00:57:12;;;;;;;37.50;19.05;;;;;;;7.06;73.07;100710.09;5130794;27;20080;-73
2022/03/30 00:59:39;;;;;;;41.92;19.52;;;;;;;7.10;73.40;100711.81;5123271;27;20118;-73
2022/03/30 01:02:05;;;;;;;43.30;19.73;;;;;;;7.10;73.44;100718.75;5122544;27;20047;-74
2022/03/30 01:04:33;;;;;;;35.38;19.27;;;;;;;7.01;73.43;100724.88;5129284;27;20031;-73
2022/03/30 01:06:59;;;;;;;41.60;19.95;;;;;;;6.99;74.18;100718.84;5131066;27;20051;-74
2022/03/30 01:09:25;;;;;;;37.15;19.88;;;;;;;6.94;74.21;100712.84;5114140;28;20164;-74
2022/03/30 01:11:53;;;;;;;40.60;19.25;;;;;;;6.83;73.82;100702.59;5129489;27;20023;-74
2022/03/30 01:14:19;;;;;;;39.63;19.08;;;;;;;6.81;74.30;100709.53;5120798;27;20080;-74
2022/03/30 01:16:44;;;;;;;37.53;20.10;;;;;;;6.75;74.96;100705.25;5124217;27;20508;-74
2022/03/30 01:19:10;;;;;;;36.13;19.05;;;;;;;6.69;74.53;100692.34;5106817;27;20040;-74
2022/03/30 01:21:37;;;;;;;36.85;19.98;;;;;;;6.66;74.72;100697.56;5127023;27;20023;-73
2022/03/30 01:24:03;;;;;;;36.55;19.13;;;;;;;6.65;74.44;100697.59;5134434;27;20359;-73
2022/03/30 01:26:29;;;;;;;39.22;19.52;;;;;;;6.62;75.14;100688.13;5122220;27;20127;-73
2022/03/30 01:28:55;;;;;;;38.28;19.23;;;;;;;6.61;75.03;100691.59;5114575;27;20110;-74
2022/03/30 01:34:05;;;;;;;38.85;20.38;;;;;;;6.63;74.75;100678.63;5107783;27;20042;-74
2022/03/30 01:36:30;;;;;;;39.50;20.42;;;;;;;6.63;74.57;100679.47;5115460;27;20031;-74
2022/03/30 01:38:55;;;;;;;40.00;19.08;;;;;;;6.65;74.57;100692.41;5114505;28;20055;-74
2022/03/30 01:41:21;;;;;;;43.10;20.23;;;;;;;6.60;74.52;100678.63;5125714;27;20027;-74
2022/03/30 01:43:46;;;;;;;42.42;20.15;;;;;;;6.57;74.40;100677.81;5121524;27;20027;-74
2022/03/30 01:46:11;;;;;;;36.08;18.70;;;;;;;6.49;75.19;100668.41;5128582;27;20046;-74
2022/03/30 01:48:37;;;;;;;36.90;18.63;;;;;;;6.48;74.78;100682.22;5113805;28;20047;-74
2022/03/30 01:51:02;;;;;;;47.50;20.02;;;;;;;6.46;75.02;100681.38;5114897;27;20588;-74
2022/03/30 01:53:28;;;;;;;39.67;20.38;;;;;;;6.45;75.65;100675.34;5117446;27;20490;-74
2022/03/30 01:55:53;;;;;;;39.53;18.23;;;;;;;6.43;74.34;100676.22;5123960;27;20027;-74
2022/03/30 01:58:19;;;;;;;36.50;18.15;;;;;;;6.39;75.06;100674.53;5113272;28;20030;-74
2022/03/30 02:00:45;;;;;;;38.22;19.40;;;;;;;6.37;75.46;100682.28;5119750;27;20084;-74
2022/03/30 02:03:11;;;;;;;39.03;18.15;;;;;;;6.31;75.27;100680.63;5126801;27;20023;-74
2022/03/30 02:05:36;;;;;;;40.58;18.98;;;;;;;6.29;75.25;100677.19;5124369;27;20031;-74
2022/03/30 02:08:02;;;;;;;39.80;19.70;;;;;;;6.24;75.66;100673.78;5119491;27;20470;-74
2022/03/30 02:10:29;;;;;;;41.40;19.65;;;;;;;6.22;75.47;100660.00;5124161;27;20031;-74
2022/03/30 02:12:55;;;;;;;40.83;18.73;;;;;;;6.15;75.59;100665.22;5120696;27;20027;-73
2022/03/30 02:15:21;;;;;;;37.63;18.98;;;;;;;6.14;75.85;100661.78;5118735;27;20023;-73
2022/03/30 02:17:46;;;;;;;41.55;18.17;;;;;;;6.06;75.74;100654.09;5132306;27;20367;-73
2022/03/30 02:20:12;;;;;;;40.28;18.95;;;;;;;6.10;76.29;100662.69;5118880;27;20076;-74
2022/03/30 02:22:37;;;;;;;40.97;18.10;;;;;;;6.06;75.79;100651.50;5132486;27;20253;-74
2022/03/30 02:25:03;;;;;;;44.53;18.92;;;;;;;6.03;76.39;100655.84;5132752;27;20394;-74
2022/03/30 02:27:28;;;;;;;38.80;18.85;;;;;;;5.99;76.42;100654.16;5116808;27;20391;-74
2022/03/30 02:29:54;;;;;;;41.20;18.50;;;;;;;5.96;76.12;100643.81;5115576;27;20476;-74
2022/03/30 02:32:20;;;;;;;38.65;18.85;;;;;;;5.91;76.75;100648.13;5128266;27;20023;-74
2022/03/30 02:34:45;;;;;;;37.55;18.63;;;;;;;5.87;76.63;100635.22;5122140;27;20528;-74
2022/03/30 02:37:12;;;;;;;43.80;19.60;;;;;;;5.81;77.10;100622.31;5114445;27;20051;-74
2022/03/30 02:39:37;;;;;;;39.88;19.30;;;;;;;5.83;76.80;100628.34;5111747;27;20058;-74
2022/03/30 02:42:03;;;;;;;44.22;19.85;;;;;;;5.77;77.26;100625.81;5130433;27;20462;-74
2022/03/30 02:44:29;;;;;;;41.20;19.40;;;;;;;5.74;77.14;100619.81;5114169;27;20837;-73
2022/03/30 02:46:55;;;;;;;43.15;19.90;;;;;;;5.72;77.24;100618.94;5124144;27;20538;-74
2022/03/30 02:49:20;;;;;;;34.58;17.40;;;;;;;5.70;77.36;100624.16;5112651;28;20043;-74
2022/03/30 02:51:45;;;;;;;43.05;19.63;;;;;;;5.69;77.69;100619.84;5130931;27;20529;-73
2022/03/30 02:54:11;;;;;;;41.35;19.35;;;;;;;5.59;77.44;100613.00;5129921;27;20059;-74
2022/03/30 02:56:36;;;;;;;45.55;18.58;;;;;;;5.60;77.51;100617.31;5116190;27;20036;-74
2022/03/30 02:59:02;;;;;;;44.97;19.25;;;;;;;5.59;77.34;100620.75;5112983;28;20115;-74
2022/03/30 03:01:28;;;;;;;40.35;20.48;;;;;;;5.55;77.95;100613.88;5124111;27;20023;-74
2022/03/30 03:03:53;;;;;;;41.10;18.15;;;;;;;5.49;78.01;100612.19;5115269;27;20558;-74
2022/03/30 03:06:18;;;;;;;41.55;19.45;;;;;;;5.46;78.15;100617.41;5127594;27;20106;-73
2022/03/30 03:08:44;;;;;;;38.17;18.35;;;;;;;5.48;77.85;100607.06;5114898;27;20395;-73
2022/03/30 03:11:10;;;;;;;38.55;18.13;;;;;;;5.44;77.77;100602.78;5131556;27;20513;-73
2022/03/30 03:13:36;;;;;;;44.40;19.35;;;;;;;5.45;78.08;100607.06;5131419;27;20470;-74
2022/03/30 03:16:01;;;;;;;39.97;19.67;;;;;;;5.38;78.50;100603.66;5127356;27;20099;-73
2022/03/30 03:18:27;;;;;;;38.30;18.45;;;;;;;5.42;78.55;100600.19;5131179;27;20026;-74
2022/03/30 03:20:52;;;;;;;40.10;18.90;;;;;;;5.39;78.20;100603.66;5126548;27;20028;-74
2022/03/30 03:23:17;;;;;;;39.97;18.75;;;;;;;5.38;78.42;100598.50;5113920;27;20083;-74
2022/03/30 03:25:44;;;;;;;40.03;18.90;;;;;;;5.30;78.30;100590.78;5113206;27;20027;-74
2022/03/30 03:28:10;;;;;;;37.30;18.55;;;;;;;5.34;78.38;100589.91;5124683;27;20031;-74
2022/03/30 03:30:36;;;;;;;41.08;20.45;;;;;;;5.36;79.02;100597.63;5121777;27;20026;-74
2022/03/30 03:33:02;;;;;;;40.35;20.50;;;;;;;5.29;78.82;100591.63;5104493;28;20032;-74
2022/03/30 03:35:28;;;;;;;43.35;20.10;;;;;;;5.25;78.93;100599.44;5102879;28;20079;-74
2022/03/30 03:37:53;;;;;;;41.78;19.20;;;;;;;5.23;79.09;100594.28;5109638;28;20084;-74
2022/03/30 03:40:19;;;;;;;39.47;18.83;;;;;;;5.19;79.75;100591.72;5108615;28;20107;-74
2022/03/30 03:42:44;;;;;;;40.50;19.15;;;;;;;5.12;79.49;100588.28;5096851;28;20026;-74
2022/03/30 03:45:11;;;;;;;41.28;18.20;;;;;;;5.08;79.68;100592.63;5096071;28;20080;-73
2022/03/30 03:47:36;;;;;;;40.10;19.02;;;;;;;5.09;79.77;100585.72;5110403;28;20043;-74
2022/03/30 03:50:03;;;;;;;40.03;18.58;;;;;;;5.02;79.65;100591.78;5095043;28;20031;-73
2022/03/30 03:52:28;;;;;;;34.22;18.25;;;;;;;4.98;79.75;100579.78;5108678;28;20382;-73
2022/03/30 03:54:54;;;;;;;37.92;18.83;;;;;;;4.91;80.12;100590.13;5110125;28;20020;-74
2022/03/30 03:57:19;;;;;;;41.67;18.45;;;;;;;4.86;80.29;100581.53;5112602;28;20415;-73
2022/03/30 03:59:47;;;;;;;45.05;18.92;;;;;;;4.75;80.61;100585.03;5130471;27;20027;-73
2022/03/30 04:02:12;;;;;;;42.08;19.05;;;;;;;4.72;80.79;100590.22;5121255;27;20023;-74
2022/03/30 04:04:38;;;;;;;40.80;19.27;;;;;;;4.67;81.26;100585.03;5125647;27;20493;-74
2022/03/30 04:07:04;;;;;;;44.40;19.92;;;;;;;4.60;81.41;100573.88;5119907;27;20035;-74
2022/03/30 04:09:30;;;;;;;38.85;19.50;;;;;;;4.59;81.11;100581.63;5118955;27;20098;-74
2022/03/30 04:11:56;;;;;;;37.78;19.02;;;;;;;4.40;81.52;100558.44;5123319;27;20031;-73
2022/03/30 04:14:21;;;;;;;40.67;18.88;;;;;;;4.45;81.78;100571.34;5130128;27;20505;-73
2022/03/30 04:16:47;;;;;;;43.55;18.52;;;;;;;4.45;81.69;100572.22;5115496;28;20467;-74
2022/03/30 04:19:15;;;;;;;42.13;17.77;;;;;;;4.48;81.89;100568.78;5112111;28;20040;-73
2022/03/30 04:21:41;;;;;;;38.38;19.15;;;;;;;4.41;82.19;100559.31;5126516;28;20027;-73
2022/03/30 04:24:07;;;;;;;45.53;18.65;;;;;;;4.43;82.18;100563.59;5113065;28;20027;-73
2022/03/30 04:26:32;;;;;;;45.63;18.60;;;;;;;4.39;82.54;100561.91;5114463;27;20074;-74
2022/03/30 04:28:57;;;;;;;47.30;19.45;;;;;;;4.38;82.31;100565.34;5111406;28;20015;-73
2022/03/30 04:31:23;;;;;;;40.13;19.05;;;;;;;4.33;82.71;100566.22;5124608;28;20084;-73
2022/03/30 04:33:48;;;;;;;42.78;19.70;;;;;;;4.32;82.89;100575.69;5118123;28;20036;-73
2022/03/30 04:36:13;;;;;;;47.75;20.05;;;;;;;4.29;83.09;100573.13;5120172;28;20027;-73
2022/03/30 04:38:39;;;;;;;45.33;21.30;;;;;;;4.28;82.96;100568.78;5131928;28;20114;-73
2022/03/30 04:41:04;;;;;;;41.50;19.00;;;;;;;4.25;82.63;100571.41;5127666;27;20027;-74
2022/03/30 04:43:30;;;;;;;41.65;18.38;;;;;;;4.17;82.56;100566.25;5121329;27;20114;-74
2022/03/30 04:45:56;;;;;;;41.38;19.38;;;;;;;4.14;83.44;100576.56;5121046;28;20423;-73
2022/03/30 04:48:22;;;;;;;45.70;19.52;;;;;;;4.11;83.56;100581.72;5129677;27;20504;-73
2022/03/30 04:50:48;;;;;;;38.75;19.30;;;;;;;4.08;83.50;100578.28;5129277;27;20102;-73
2022/03/30 04:53:13;;;;;;;39.50;21.02;;;;;;;4.08;83.50;100579.16;5111627;28;20135;-73
2022/03/30 04:55:39;;;;;;;44.47;19.73;;;;;;;4.04;84.10;100576.59;5122274;28;20436;-73
2022/03/30 04:58:05;;;;;;;41.63;20.05;;;;;;;4.02;83.54;100578.28;5116760;27;20062;-73
2022/03/30 05:00:31;;;;;;;46.22;20.25;;;;;;;3.96;84.34;100577.47;5117531;28;20356;-73
2022/03/30 05:02:57;;;;;;;44.42;19.35;;;;;;;3.89;85.11;100580.03;5123682;27;20031;-73
2022/03/30 05:05:22;;;;;;;43.83;20.27;;;;;;;3.89;84.62;100593.78;5130641;27;20026;-73
2022/03/30 05:07:47;;;;;;;44.83;20.42;;;;;;;3.81;84.58;100590.34;5130243;27;20402;-73
2022/03/30 05:10:14;;;;;;;46.22;20.48;;;;;;;3.76;85.14;100579.19;5123273;27;20023;-73
2022/03/30 05:12:43;;;;;;;40.83;19.88;;;;;;;3.73;85.21;100581.75;5128345;27;20039;-73
2022/03/30 05:15:09;;;;;;;47.60;20.58;;;;;;;3.72;85.27;100582.59;5118910;27;20031;-73
2022/03/30 05:17:36;;;;;;;45.25;19.88;;;;;;;3.69;85.76;100585.19;5116422;27;20531;-73
2022/03/30 05:20:02;;;;;;;50.10;21.80;;;;;;;3.65;85.67;100578.31;5117929;27;20024;-73
2022/03/30 05:22:27;;;;;;;49.70;21.52;;;;;;;3.60;86.07;100577.47;5126815;27;20428;-73
2022/03/30 05:24:53;;;;;;;47.88;21.30;;;;;;;3.49;86.08;100569.69;5115693;27;20397;-73
2022/03/30 05:27:18;;;;;;;49.80;21.73;;;;;;;3.49;86.59;100567.13;5123260;27;20020;-73
2022/03/30 05:29:43;;;;;;;47.80;21.58;;;;;;;3.48;87.22;100566.25;5122251;27;20027;-73
2022/03/30 05:32:09;;;;;;;52.60;23.05;;;;;;;3.49;86.69;100564.53;5131364;27;20031;-73
2022/03/30 05:34:34;;;;;;;48.60;21.13;;;;;;;3.42;86.91;100562.81;5133178;27;20034;-73
2022/03/30 05:36:59;;;;;;;53.45;22.17;;;;;;;3.41;86.68;100561.97;5115636;27;20023;-73
2022/03/30 05:39:25;;;;;;;46.83;21.35;;;;;;;3.42;86.85;100566.25;5115130;27;20023;-73
2022/03/30 05:41:54;;;;;;;50.35;22.65;;;;;;;3.42;87.12;100560.25;5115301;27;20394;-73
2022/03/30 05:44:19;;;;;;;45.90;21.25;;;;;;;3.43;86.39;100569.69;5114929;27;20047;-73
2022/03/30 05:46:44;;;;;;;51.72;21.55;;;;;;;3.42;86.71;100571.41;5131861;27;20466;-73
2022/03/30 05:49:10;;;;;;;44.58;21.58;;;;;;;3.43;87.21;100567.09;5126603;27;20119;-73
2022/03/30 05:51:35;;;;;;;49.88;21.48;;;;;;;3.42;86.57;100563.69;5115469;27;20031;-73
2022/03/30 05:54:01;;;;;;;43.38;21.20;;;;;;;3.46;87.45;100570.53;5115013;27;20039;-73
2022/03/30 05:59:11;;;;;;;40.67;20.90;;;;;;;3.52;86.92;100569.69;5121417;27;20080;-73
2022/03/30 06:01:37;;;;;;;44.33;20.40;;;;;;;3.48;87.36;100571.41;5119338;27;20038;-73
2022/03/30 06:04:02;;;;;;;43.10;20.77;;;;;;;3.41;87.49;100561.97;5113421;28;20502;-73
2022/03/30 06:06:28;;;;;;;53.63;23.42;;;;;;;3.48;86.84;100568.84;5126093;27;20489;-73
2022/03/30 06:08:53;;;;;;;45.03;21.50;;;;;;;3.54;87.13;100574.88;5113449;28;20028;-73
2022/03/30 06:11:18;;;;;;;47.65;20.73;;;;;;;3.55;87.41;100574.00;5115036;27;20050;-73
2022/03/30 06:13:44;;;;;;;42.70;20.55;;;;;;;3.61;87.31;100579.16;5114368;27;20032;-74
2022/03/30 06:16:10;;;;;;;46.22;20.73;;;;;;;3.56;86.90;100566.25;5115568;27;20097;-73
2022/03/30 06:18:35;;;;;;;44.28;21.02;;;;;;;3.58;86.53;100576.59;5116403;27;20031;-73
2022/03/30 06:21:01;;;;;;;47.17;20.77;;;;;;;3.61;87.48;100586.91;5124371;27;20023;-73
2022/03/30 06:23:27;;;;;;;45.95;20.73;;;;;;;3.65;87.28;100591.19;5115043;27;20500;-73
2022/03/30 06:25:53;;;;;;;46.80;20.65;;;;;;;3.67;86.28;100589.50;5114304;27;20079;-73
2022/03/30 06:28:22;;;;;;;45.67;20.52;;;;;;;3.63;86.37;100580.91;5124794;27;20020;-73
2022/03/30 06:30:48;;;;;;;46.65;21.55;;;;;;;3.71;86.68;100592.06;5117269;27;20105;-73
2022/03/30 06:33:13;;;;;;;46.65;20.95;;;;;;;3.72;86.92;100587.75;5112543;28;20074;-73
2022/03/30 06:35:39;;;;;;;45.97;21.63;;;;;;;3.74;86.33;100581.75;5112946;28;20032;-72
2022/03/30 06:38:05;;;;;;;49.17;20.35;;;;;;;3.78;86.57;100582.59;5113398;28;20027;-73
2022/03/30 06:40:33;;;;;;;49.63;20.65;;;;;;;3.81;86.68;100574.88;5113404;27;20023;-73
2022/03/30 06:43:00;;;;;;;47.25;20.63;;;;;;;3.87;86.21;100584.34;5114218;27;20039;-73
2022/03/30 06:45:25;;;;;;;51.15;21.17;;;;;;;3.91;86.29;100575.72;5112460;28;20463;-73
2022/03/30 06:47:50;;;;;;;50.38;20.35;;;;;;;3.94;85.41;100573.16;5116085;27;20043;-73
2022/03/30 06:50:18;;;;;;;49.47;20.63;;;;;;;3.96;86.21;100568.88;5116410;27;20031;-73
2022/03/30 06:52:44;;;;;;;45.17;20.58;;;;;;;4.05;85.54;100575.72;5115390;27;20533;-73
2022/03/30 06:55:10;;;;;;;55.08;22.13;;;;;;;4.06;86.01;100580.88;5114853;27;20054;-73
2022/03/30 06:57:36;;;;;;;42.47;19.65;;;;;;;4.15;85.34;100562.81;5119047;27;20382;-73
2022/03/30 07:00:02;;;;;;;50.20;19.35;;;;;;;4.18;84.42;100562.78;5108504;27;20051;-73
2022/03/30 07:02:27;;;;;;;42.55;20.05;;;;;;;4.34;84.66;100576.53;5124548;27;20027;-73
2022/03/30 07:04:52;;;;;;;46.70;19.15;;;;;;;4.44;84.20;100562.72;5121152;27;20026;-73
2022/03/30 07:10:17;;;;;;;51.03;20.65;;;;;;;4.72;83.77;100556.63;5112778;28;20516;-73
2022/03/30 07:12:44;;;;;;;43.28;19.85;;;;;;;4.86;83.17;100562.59;5112110;27;20032;-73
2022/03/30 07:15:09;;;;;;;45.15;19.75;;;;;;;5.01;83.37;100565.09;5111828;28;20062;-73
2022/03/30 07:17:52;;;;;;;39.60;18.65;;;;;;;5.19;81.55;100568.44;5112272;28;20047;-72
2022/03/30 07:20:20;;;;;;;43.13;19.85;;;;;;;5.46;80.89;100559.66;5112478;28;20160;-73
2022/03/30 07:22:47;;;;;;;46.28;18.80;;;;;;;5.81;79.96;100562.81;5111659;28;20024;-73
2022/03/30 07:25:14;;;;;;;40.22;18.98;;;;;;;6.14;78.63;100559.97;5111937;28;20096;-73
2022/03/30 07:27:45;;;;;;;46.65;18.50;;;;;;;6.36;76.95;100565.81;5111355;28;20027;-73
2022/03/30 07:30:11;;;;;;;36.85;17.60;;;;;;;6.56;75.92;100563.84;5111771;27;20050;-73
2022/03/30 07:32:39;;;;;;;35.42;17.38;;;;;;;6.69;74.46;100559.38;5111083;28;20105;-73
2022/03/30 07:35:06;;;;;;;34.33;17.02;;;;;;;6.81;75.73;100564.44;5111884;28;20031;-73
2022/03/30 07:37:32;;;;;;;37.05;16.75;;;;;;;6.97;74.41;100562.50;5112066;28;20028;-73
2022/03/30 07:39:57;;;;;;;43.80;18.63;;;;;;;7.14;74.19;100564.88;5111934;28;20122;-73
2022/03/30 07:42:23;;;;;;;37.95;18.33;;;;;;;7.22;72.93;100563.00;5111399;28;20023;-73
2022/03/30 07:44:48;;;;;;;38.85;17.70;;;;;;;7.23;71.99;100555.22;5111868;28;20062;-73
2022/03/30 07:47:14;;;;;;;35.85;16.90;;;;;;;7.27;71.78;100554.28;5112037;28;20023;-73
2022/03/30 07:49:39;;;;;;;35.33;17.27;;;;;;;7.28;71.20;100550.81;5111225;28;20034;-73
2022/03/30 07:52:05;;;;;;;37.80;16.70;;;;;;;7.33;71.96;100557.69;5112274;28;20031;-73
2022/03/30 07:54:30;;;;;;;45.58;18.30;;;;;;;7.36;71.08;100548.13;5111831;28;20039;-73
2022/03/30 07:56:56;;;;;;;34.10;17.30;;;;;;;7.50;70.64;100547.91;5111239;28;20883;-73
2022/03/30 07:59:21;;;;;;;36.58;16.98;;;;;;;7.52;70.37;100559.13;5111512;28;20463;-73
2022/03/30 08:01:46;;;;;;;38.08;17.50;;;;;;;7.48;70.84;100549.66;5111815;28;20032;-73
2022/03/30 08:04:12;;;;;;;37.80;17.35;;;;;;;7.40;71.30;100554.97;5111072;28;20460;-73
2022/03/30 08:06:37;;;;;;;33.08;16.23;;;;;;;7.30;71.49;100555.13;5111809;28;20028;-73
2022/03/30 08:09:03;;;;;;;30.05;17.08;;;;;;;7.21;71.57;100551.78;5112212;28;20499;-73
2022/03/30 08:11:29;;;;;;;34.15;17.10;;;;;;;7.23;71.59;100562.16;5110912;28;20711;-73
2022/03/30 08:13:56;;;;;;;33.35;16.38;;;;;;;7.27;71.40;100564.66;5111464;28;20407;-73
2022/03/30 08:16:22;;;;;;;35.65;16.90;;;;;;;7.27;71.57;100569.84;5111741;28;20043;-73
2022/03/30 08:18:47;;;;;;;33.83;16.77;;;;;;;7.26;71.82;100560.38;5110992;28;20032;-73
2022/03/30 08:23:56;;;;;;;35.55;17.17;;;;;;;7.37;72.21;100560.19;5110778;28;20104;-73
2022/03/30 08:26:22;;;;;;;37.22;16.58;;;;;;;7.44;72.04;100558.38;5111478;28;20019;-73
2022/03/30 08:28:48;;;;;;;37.63;17.85;;;;;;;7.49;71.29;100564.38;5111418;28;20487;-73
2022/03/30 08:31:13;;;;;;;33.17;17.00;;;;;;;7.53;71.10;100572.94;5110971;28;20038;-73
2022/03/30 08:33:39;;;;;;;40.90;17.48;;;;;;;7.52;70.92;100559.13;5111451;28;20036;-73
2022/03/30 08:36:04;;;;;;;32.03;16.73;;;;;;;7.57;70.96;100561.63;5111871;28;20039;-73
2022/03/30 08:38:30;;;;;;;29.73;16.75;;;;;;;7.64;70.73;100556.31;5112781;28;20034;-73
2022/03/30 08:40:57;;;;;;;30.00;15.98;;;;;;;7.72;70.89;100551.03;5115361;28;20367;-73
2022/03/30 08:43:24;;;;;;;39.22;17.13;;;;;;;7.79;69.73;100551.78;5115516;28;20032;-73
2022/03/30 08:45:49;;;;;;;31.98;15.88;;;;;;;7.81;69.56;100553.44;5114645;28;20375;-73
2022/03/30 08:48:15;;;;;;;36.83;17.05;;;;;;;7.85;69.94;100551.69;5115187;28;20035;-73
2022/03/30 08:50:40;;;;;;;29.05;15.82;;;;;;;7.87;68.78;100542.97;5115244;27;20051;-73
2022/03/30 08:53:06;;;;;;;31.30;15.50;;;;;;;7.89;68.51;100542.94;5114780;28;20058;-74
2022/03/30 08:55:32;;;;;;;32.17;15.15;;;;;;;7.88;69.53;100546.41;5114882;28;20051;-73
2022/03/30 08:57:59;;;;;;;28.23;15.40;;;;;;;7.97;69.62;100548.84;5115281;28;20027;-73
2022/03/30 09:00:25;;;;;;;35.80;16.90;;;;;;;8.06;69.40;100547.84;5114168;28;20513;-73
2022/03/30 09:03:00;;;;;;;30.05;14.93;;;;;;;8.19;69.26;100544.13;5115144;28;20032;-73
2022/03/30 09:05:27;;;;;;;29.70;15.60;;;;;;;8.24;68.65;100541.44;5114932;28;20016;-73
2022/03/30 09:07:57;;;;;;;33.33;15.38;;;;;;;8.25;68.57;100545.78;5114090;28;20034;-73
2022/03/30 09:10:30;;;;;;;36.05;16.15;;;;;;;8.33;68.45;100534.34;5115191;28;20107;-73
2022/03/30 09:12:56;;;;;;;30.55;14.68;;;;;;;8.46;67.80;100536.75;5115000;28;20039;-73
2022/03/30 09:15:22;;;;;;;31.88;14.35;;;;;;;8.51;67.52;100533.19;5114049;28;20047;-73
2022/03/30 09:17:47;;;;;;;30.25;14.57;;;;;;;8.56;67.85;100531.31;5114722;28;20084;-73
2022/03/30 09:20:19;;;;;;;33.20;14.68;;;;;;;8.72;66.55;100534.47;5113931;28;20020;-73
2022/03/30 09:22:49;;;;;;;31.77;15.25;;;;;;;8.74;67.59;100534.47;5114542;28;20035;-73
2022/03/30 09:25:16;;;;;;;29.45;15.52;;;;;;;8.80;67.65;100529.97;5114797;27;20114;-73
2022/03/30 09:27:43;;;;;;;31.23;14.55;;;;;;;8.95;66.90;100525.34;5113888;28;20027;-73
2022/03/30 09:30:15;;;;;;;26.75;15.10;;;;;;;8.97;66.29;100519.22;5114928;27;20020;-73
2022/03/30 09:32:41;;;;;;;27.88;14.85;;;;;;;8.97;66.67;100520.97;5115172;27;20092;-73
2022/03/30 09:35:27;;;;;;;26.40;14.75;;;;;;;9.03;66.28;100511.28;5117498;27;20043;-73
2022/03/30 09:38:05;;;;;;;27.63;14.48;;;;;;;9.17;66.03;100512.72;5114482;28;20027;-73
2022/03/30 09:40:34;;;;;;;29.13;14.23;;;;;;;9.18;65.33;100511.81;5114182;28;20015;-73
2022/03/30 09:43:30;;;;;;;27.42;14.35;;;;;;;9.28;65.60;100503.75;5113544;28;20065;-73
2022/03/30 09:46:05;;;;;;;29.60;14.80;;;;;;;9.39;65.14;100506.13;5100622;28;20491;-74
2022/03/30 09:48:33;;;;;;;32.65;15.32;;;;;;;9.50;63.62;100501.50;5118555;27;20134;-73
2022/03/30 09:50:59;;;;;;;25.42;14.60;;;;;;;9.60;63.64;100500.38;5122176;27;20015;-73
2022/03/30 09:53:28;;;;;;;31.08;16.50;;;;;;;9.68;63.35;100499.31;5119500;27;20534;-73
2022/03/30 09:56:04;;;;;;;25.33;15.25;;;;;;;9.83;63.53;100493.75;5121061;27;20039;-74
2022/03/30 09:58:32;;;;;;;30.08;14.90;;;;;;;9.98;62.42;100487.28;5118015;27;20057;-73
2022/03/30 10:01:16;;;;;;;25.55;15.00;;;;;;;10.17;62.24;100493.72;5124902;27;20081;-74
2022/03/30 10:04:04;;;;;;;27.13;16.00;;;;;;;10.36;62.31;100478.44;5098583;27;20020;-74
2022/03/30 10:06:34;;;;;;;33.45;16.38;;;;;;;10.46;60.35;100485.13;5093909;28;20565;-74
2022/03/30 10:09:00;;;;;;;30.10;15.40;;;;;;;10.52;60.21;100484.06;5107001;27;20028;-74
2022/03/30 10:11:27;;;;;;;27.38;14.80;;;;;;;10.58;59.05;100483.03;5100723;27;20031;-74
2022/03/30 10:14:01;;;;;;;29.95;15.63;;;;;;;10.69;59.48;100486.19;5110081;28;20055;-74
2022/03/30 10:16:27;;;;;;;;;;;;;;;10.64;60.84;100491.53;5096889;28;20019;-74
2022/03/30 10:18:54;;;;;;;28.80;15.05;;;;;;;10.44;59.59;100486.91;5101610;28;20366;-73
2022/03/30 10:21:27;;;;;;;32.17;15.85;;;;;;;10.30;59.58;100473.44;5114936;27;20024;-74
2022/03/30 10:24:13;;;;;;;;;;;;;;;10.42;60.51;100480.88;5094608;28;20047;-74
2022/03/30 10:26:58;;;;;;;28.40;15.38;;;;;;;10.44;59.10;100476.47;5099048;28;19947;-74
2022/03/30 10:29:26;;;;;;;30.88;15.90;;;;;;;10.31;59.87;100478.56;5125415;27;20034;-74
2022/03/30 10:32:16;;;;;;;29.70;15.85;;;;;;;10.40;60.47;100468.78;5120082;27;20475;-74
2022/03/30 10:34:53;;;;;;;28.48;15.75;;;;;;;10.47;58.91;100472.94;5108902;28;20035;-74
2022/03/30 10:37:24;;;;;;;28.63;15.73;;;;;;;10.71;59.30;100468.75;5115914;27;20027;-74
2022/03/30 10:40:03;;;;;;;29.23;14.75;;;;;;;11.12;58.97;100464.03;5112209;28;20031;-79
2022/03/30 10:42:46;;;;;;;27.77;15.45;;;;;;;11.40;57.82;100457.00;5113205;27;20036;-75
2022/03/30 10:45:17;;;;;;;30.85;15.18;;;;;;;11.53;56.13;100452.22;5121276;27;20039;-75
2022/03/30 10:48:15;;;;;;;24.60;15.27;;;;;;;11.83;56.74;100437.25;5117120;27;20047;-74
2022/03/30 10:50:44;;;;;;;28.65;15.63;;;;;;;11.96;55.49;100440.31;5127046;27;20402;-75
2022/03/30 10:53:34;;;;;;;26.52;14.98;;;;;;;12.04;57.01;100437.44;5121587;27;20055;-74
2022/03/30 10:56:24;;;;;;;31.08;15.90;;;;;;;12.21;55.79;100431.63;5111060;28;20031;-75
2022/03/30 10:58:49;;;;;;;28.35;15.85;;;;;;;12.39;55.91;100420.44;5105361;27;20070;-75
2022/03/30 11:01:28;;;;;;;27.35;14.82;;;;;;;12.64;54.79;100428.22;5111779;28;20487;-75
2022/03/30 11:04:02;;;;;;;34.05;16.40;;;;;;;12.95;54.87;100421.78;5112842;28;20378;-75
2022/03/30 11:06:29;;;;;;;27.88;15.57;;;;;;;13.05;53.07;100417.91;5111627;28;20406;-75
2022/03/30 11:08:59;;;;;;;31.70;15.20;;;;;;;13.20;53.61;100413.81;5113380;27;20033;-75
2022/03/30 11:11:30;;;;;;;27.23;14.73;;;;;;;13.18;51.30;100416.50;5112716;28;20084;-75
2022/03/30 11:14:26;;;;;;;25.45;14.77;;;;;;;13.31;52.88;100406.41;5111651;28;20035;-75
2022/03/30 11:16:57;;;;;;;26.67;14.65;;;;;;;12.93;51.61;100400.09;5107812;27;20501;-75
2022/03/30 11:19:29;;;;;;;27.85;14.73;;;;;;;12.80;51.19;100394.47;5098673;28;20020;-75
2022/03/30 11:22:14;;;;;;;23.17;14.82;;;;;;;12.84;52.58;100404.75;5102929;27;20309;-75
2022/03/30 11:25:03;;;;;;;23.13;13.70;;;;;;;12.83;51.36;100392.59;5092263;27;20036;-75
2022/03/30 11:27:29;;;;;;;28.30;15.13;;;;;;;13.08;52.04;100392.47;5107408;28;20549;-75
2022/03/30 11:29:56;;;;;;;25.15;14.70;;;;;;;13.23;51.06;100395.34;5123400;27;20031;-75